createdAt,value
2018-09-17T00:00:12.308Z,0
2018-09-17T00:01:22.454Z,0
2018-09-17T00:02:32.549Z,0
2018-09-17T00:03:42.631Z,0
2018-09-17T00:04:52.704Z,0
2018-09-17T00:06:02.786Z,0
2018-09-17T00:07:12.873Z,0
2018-09-17T00:08:22.943Z,0
2018-09-17T00:09:32.760Z,0
2018-09-17T00:10:42.828Z,0
2018-09-17T00:11:52.958Z,0
2018-09-17T00:13:03.034Z,0
2018-09-17T00:14:13.192Z,0
2018-09-17T00:15:23.265Z,0
2018-09-17T00:16:33.346Z,0
2018-09-17T00:17:43.424Z,0
2018-09-17T00:18:53.513Z,0
2018-09-17T00:20:03.580Z,0
2018-09-17T00:21:13.651Z,0
2018-09-17T00:22:23.470Z,0
2018-09-17T00:23:33.612Z,0
2018-09-17T00:24:43.675Z,0
2018-09-17T00:25:53.740Z,0
2018-09-17T00:27:03.835Z,0
2018-09-17T00:28:13.921Z,0
2018-09-17T00:29:24.044Z,0
2018-09-17T00:30:34.181Z,0
2018-09-17T00:31:44.252Z,0
2018-09-17T00:32:54.061Z,0
2018-09-17T00:34:04.126Z,0
2018-09-17T00:35:14.453Z,0
2018-09-17T00:36:24.523Z,0
2018-09-17T00:37:34.628Z,0
2018-09-17T00:38:44.443Z,0
2018-09-17T00:39:54.245Z,0
2018-09-17T00:41:04.062Z,0
2018-09-17T00:42:13.867Z,0
2018-09-17T00:43:23.947Z,0
2018-09-17T00:44:33.802Z,0
2018-09-17T00:45:43.885Z,0
2018-09-17T00:46:53.964Z,0
2018-09-17T00:48:04.895Z,0
2018-09-17T00:49:15.085Z,0
2018-09-17T00:50:24.937Z,0
2018-09-17T00:51:34.999Z,0
2018-09-17T00:52:45.175Z,0
2018-09-17T00:53:55.244Z,0
2018-09-17T00:55:05.309Z,0
2018-09-17T00:56:15.435Z,0
2018-09-17T00:57:25.231Z,0
2018-09-17T00:58:35.434Z,0
2018-09-17T00:59:45.522Z,0
2018-09-17T01:00:55.596Z,0
2018-09-17T01:02:05.156Z,0
2018-09-17T01:03:15.239Z,0
2018-09-17T01:04:25.236Z,0
2018-09-17T01:05:35.351Z,0
2018-09-17T01:06:45.430Z,0
2018-09-17T01:07:55.551Z,0
2018-09-17T01:09:08.074Z,0
2018-09-17T01:10:18.037Z,0
2018-09-17T01:11:28.107Z,0
2018-09-17T01:12:38.184Z,0
2018-09-17T01:13:48.250Z,0
2018-09-17T01:14:58.312Z,0
2018-09-17T01:16:09.944Z,0
2018-09-17T01:17:20.028Z,0
2018-09-17T01:18:30.122Z,0
2018-09-17T01:19:40.195Z,0
2018-09-17T01:20:50.275Z,0
2018-09-17T01:22:00.397Z,0
2018-09-17T01:23:10.454Z,0
2018-09-17T01:24:20.517Z,0
2018-09-17T01:25:30.986Z,0
2018-09-17T01:26:41.059Z,0
2018-09-17T01:27:51.142Z,0
2018-09-17T01:29:01.198Z,0
2018-09-17T01:30:11.269Z,0
2018-09-17T01:31:21.110Z,0
2018-09-17T01:32:31.183Z,0
2018-09-17T01:33:41.317Z,0
2018-09-17T01:34:51.420Z,0
2018-09-17T01:36:01.495Z,0
2018-09-17T01:37:11.561Z,0
2018-09-17T01:38:21.413Z,0
2018-09-17T01:39:31.477Z,0
2018-09-17T01:40:41.557Z,0
2018-09-17T01:41:51.636Z,0
2018-09-17T01:43:01.696Z,0
2018-09-17T01:44:13.995Z,0
2018-09-17T01:45:24.289Z,0
2018-09-17T01:46:34.343Z,0
2018-09-17T01:47:44.437Z,0
2018-09-17T01:48:54.310Z,0
2018-09-17T01:50:05.793Z,0
2018-09-17T01:51:15.900Z,0
2018-09-17T01:52:25.975Z,0
2018-09-17T01:53:36.041Z,0
2018-09-17T01:54:45.851Z,0
2018-09-17T01:55:55.678Z,0
2018-09-17T01:57:05.273Z,0
2018-09-17T01:58:14.829Z,0
2018-09-17T01:59:24.899Z,0
2018-09-17T02:00:35.015Z,0
2018-09-17T02:01:45.098Z,0
2018-09-17T02:02:55.332Z,0
2018-09-17T02:04:05.142Z,0
2018-09-17T02:05:15.211Z,0
2018-09-17T02:06:25.328Z,0
2018-09-17T02:07:35.148Z,0
2018-09-17T02:08:45.462Z,0
2018-09-17T02:09:55.397Z,0
2018-09-17T02:11:06.015Z,0
2018-09-17T02:12:15.825Z,0
2018-09-17T02:13:25.947Z,0
2018-09-17T02:14:36.080Z,0
2018-09-17T02:15:46.173Z,0
2018-09-17T02:16:56.296Z,0
2018-09-17T02:18:07.071Z,0
2018-09-17T02:19:16.902Z,0
2018-09-17T02:20:27.028Z,0
2018-09-17T02:21:37.100Z,0
2018-09-17T02:22:46.658Z,0
2018-09-17T02:23:56.734Z,0
2018-09-17T02:25:06.902Z,0
2018-09-17T02:26:17.018Z,0
2018-09-17T02:27:27.088Z,0
2018-09-17T02:28:37.161Z,0
2018-09-17T02:29:47.223Z,0
2018-09-17T02:30:57.029Z,0
2018-09-17T02:32:06.887Z,0
2018-09-17T02:33:16.968Z,0
2018-09-17T02:34:27.050Z,0
2018-09-17T02:35:37.121Z,0
2018-09-17T02:36:47.234Z,0
2018-09-17T02:37:57.086Z,0
2018-09-17T02:39:07.643Z,0
2018-09-17T02:40:17.457Z,0
2018-09-17T02:41:27.601Z,0
2018-09-17T02:42:37.689Z,0
2018-09-17T02:43:47.778Z,0
2018-09-17T02:44:57.589Z,0
2018-09-17T02:46:09.296Z,0
2018-09-17T02:47:19.124Z,0
2018-09-17T02:48:28.942Z,0
2018-09-17T02:49:39.066Z,0
2018-09-17T02:50:49.134Z,0
2018-09-17T02:51:59.216Z,0
2018-09-17T02:53:09.305Z,0
2018-09-17T02:54:19.429Z,0
2018-09-17T02:55:29.509Z,0
2018-09-17T02:56:39.596Z,0
2018-09-17T02:57:49.406Z,0
2018-09-17T02:58:59.494Z,0
2018-09-17T03:00:12.023Z,0
2018-09-17T03:01:22.165Z,0
2018-09-17T03:02:32.255Z,0
2018-09-17T03:35:01.460Z,0
2018-09-17T03:36:11.539Z,0
2018-09-17T03:37:21.605Z,0
2018-09-17T03:38:31.692Z,0
2018-09-17T03:39:41.772Z,0
2018-09-17T03:40:51.872Z,0
2018-09-17T03:42:01.943Z,0
2018-09-17T03:43:12.012Z,0
2018-09-17T03:44:21.828Z,0
2018-09-17T03:45:31.641Z,0
2018-09-17T03:46:42.428Z,0
2018-09-17T03:47:52.846Z,0
2018-09-17T03:49:03.577Z,0
2018-09-17T03:50:13.684Z,0
2018-09-17T03:51:23.500Z,0
2018-09-17T03:52:33.571Z,0
2018-09-17T03:53:43.639Z,0
2018-09-17T03:54:53.718Z,0
2018-09-17T03:56:05.460Z,0
2018-09-17T03:57:15.528Z,0
2018-09-17T03:58:25.326Z,0
2018-09-17T03:59:35.406Z,0
2018-09-17T04:00:45.601Z,0
2018-09-17T04:01:55.412Z,0
2018-09-17T04:03:05.465Z,0
2018-09-17T04:04:15.599Z,4
2018-09-17T04:05:25.665Z,4
2018-09-17T04:06:35.738Z,0
2018-09-17T04:07:45.801Z,0
2018-09-17T04:08:55.601Z,4
2018-09-17T04:10:06.136Z,4
2018-09-17T04:11:16.207Z,4
2018-09-17T04:12:26.296Z,4
2018-09-17T04:13:36.108Z,4
2018-09-17T04:14:46.186Z,8
2018-09-17T04:15:56.330Z,8
2018-09-17T04:17:06.263Z,8
2018-09-17T04:18:16.129Z,12
2018-09-17T04:19:26.200Z,16
2018-09-17T04:20:36.260Z,20
2018-09-17T04:21:46.391Z,24
2018-09-17T04:22:56.483Z,24
2018-09-17T04:24:06.565Z,32
2018-09-17T04:25:16.652Z,32
2018-09-17T04:26:26.461Z,40
2018-09-17T04:27:36.580Z,44
2018-09-17T04:28:46.667Z,48
2018-09-17T04:29:56.751Z,56
2018-09-17T04:31:07.834Z,60
2018-09-17T04:32:17.967Z,72
2018-09-17T04:33:27.500Z,84
2018-09-17T04:34:37.308Z,92
2018-09-17T04:35:47.424Z,104
2018-09-17T04:36:57.495Z,120
2018-09-17T04:38:07.362Z,140
2018-09-17T04:39:17.553Z,156
2018-09-17T04:40:27.630Z,176
2018-09-17T04:41:37.449Z,192
2018-09-17T04:42:47.563Z,220
2018-09-17T04:43:57.628Z,244
2018-09-17T04:45:07.699Z,272
2018-09-17T04:46:17.520Z,300
2018-09-17T04:47:27.592Z,332
2018-09-17T04:48:37.645Z,364
2018-09-17T04:49:47.459Z,400
2018-09-17T04:50:57.532Z,436
2018-09-17T04:52:08.165Z,472
2018-09-17T04:53:17.992Z,496
2018-09-17T04:54:28.079Z,516
2018-09-17T04:55:38.154Z,532
2018-09-17T04:56:48.245Z,548
2018-09-17T04:57:58.306Z,576
2018-09-17T04:59:10.138Z,608
2018-09-17T05:00:19.981Z,640
2018-09-17T05:01:30.073Z,672
2018-09-17T05:02:39.870Z,712
2018-09-17T05:03:49.937Z,756
2018-09-17T05:04:59.744Z,788
2018-09-17T05:06:09.607Z,816
2018-09-17T05:07:19.905Z,856
2018-09-17T05:08:30.181Z,900
2018-09-17T05:09:40.350Z,948
2018-09-17T05:10:50.420Z,1036
2018-09-17T05:12:00.532Z,1140
2018-09-17T05:13:11.184Z,1228
2018-09-17T05:14:21.423Z,1284
2018-09-17T05:15:31.493Z,1344
2018-09-17T05:16:41.576Z,1404
2018-09-17T05:17:51.385Z,1404
2018-09-17T05:19:01.453Z,1404
2018-09-17T05:20:11.543Z,1428
2018-09-17T05:21:21.602Z,1476
2018-09-17T05:22:31.417Z,1528
2018-09-17T05:23:41.497Z,1596
2018-09-17T05:24:51.574Z,1668
2018-09-17T05:26:02.675Z,1724
2018-09-17T05:27:12.760Z,1772
2018-09-17T05:28:22.843Z,1816
2018-09-17T05:29:32.916Z,1800
2018-09-17T05:30:42.991Z,1700
2018-09-17T05:31:53.144Z,1688
2018-09-17T05:33:03.739Z,1700
2018-09-17T05:34:13.897Z,1732
2018-09-17T05:35:23.979Z,1772
2018-09-17T05:36:33.841Z,1660
2018-09-17T05:37:44.020Z,1604
2018-09-17T05:38:53.832Z,1532
2018-09-17T05:40:05.496Z,1524
2018-09-17T05:41:15.570Z,1524
2018-09-17T05:42:25.383Z,1572
2018-09-17T05:43:35.199Z,1596
2018-09-17T05:44:45.274Z,1632
2018-09-17T05:45:55.355Z,1596
2018-09-17T05:47:05.420Z,1612
2018-09-17T05:48:15.611Z,1616
2018-09-17T05:49:25.688Z,1640
2018-09-17T05:50:35.242Z,1660
2018-09-17T05:51:45.057Z,1656
2018-09-17T05:52:55.150Z,1592
2018-09-17T05:54:05.097Z,1576
2018-09-17T05:55:15.009Z,1608
2018-09-17T05:56:24.844Z,1652
2018-09-17T05:57:34.920Z,1756
2018-09-17T05:58:45.021Z,1812
2018-09-17T05:59:55.107Z,1812
2018-09-17T06:01:04.936Z,1772
2018-09-17T06:02:15.002Z,1732
2018-09-17T06:03:25.090Z,1700
2018-09-17T06:04:35.236Z,1704
2018-09-17T06:05:45.679Z,1752
2018-09-17T06:06:55.624Z,1788
2018-09-17T06:08:07.891Z,1836
2018-09-17T06:09:17.959Z,1932
2018-09-17T06:10:27.794Z,2084
2018-09-17T06:11:37.654Z,2260
2018-09-17T06:12:47.796Z,2356
2018-09-17T06:13:57.904Z,2476
2018-09-17T06:15:08.519Z,2532
2018-09-17T06:16:18.658Z,2632
2018-09-17T06:17:29.149Z,2728
2018-09-17T06:18:39.463Z,2824
2018-09-17T06:19:49.543Z,2864
2018-09-17T06:20:59.612Z,2860
2018-09-17T06:22:09.708Z,2864
2018-09-17T06:23:19.907Z,2820
2018-09-17T06:24:30.171Z,2864
2018-09-17T06:25:40.256Z,2888
2018-09-17T06:26:50.501Z,2860
2018-09-17T06:28:00.395Z,2844
2018-09-17T06:29:10.642Z,2980
2018-09-17T06:30:20.704Z,3004
2018-09-17T06:31:30.257Z,3052
2018-09-17T06:32:40.360Z,3048
2018-09-17T06:33:50.455Z,2924
2018-09-17T06:35:02.732Z,3084
2018-09-17T06:36:13.004Z,3080
2018-09-17T06:37:23.255Z,3056
2018-09-17T06:38:33.087Z,2992
2018-09-17T06:39:43.164Z,2952
2018-09-17T06:40:53.236Z,2924
2018-09-17T06:42:04.606Z,2952
2018-09-17T06:43:14.430Z,2868
2018-09-17T06:44:24.500Z,2760
2018-09-17T06:45:34.580Z,2660
2018-09-17T06:46:44.404Z,2616
2018-09-17T06:47:54.486Z,2612
2018-09-17T06:49:04.562Z,2608
2018-09-17T06:50:14.633Z,2736
2018-09-17T06:51:24.684Z,2732
2018-09-17T06:52:34.867Z,2712
2018-09-17T06:53:45.025Z,2576
2018-09-17T06:54:55.211Z,2644
2018-09-17T06:56:05.933Z,2692
2018-09-17T06:57:15.840Z,2680
2018-09-17T06:58:25.385Z,2664
2018-09-17T06:59:35.449Z,2592
2018-09-17T07:00:45.545Z,2660
2018-09-17T07:01:55.633Z,2700
2018-09-17T07:03:05.542Z,2808
2018-09-17T07:04:15.617Z,2916
2018-09-17T07:05:25.694Z,2956
2018-09-17T07:06:35.755Z,2904
2018-09-17T07:07:45.863Z,3048
2018-09-17T07:08:56.001Z,3056
2018-09-17T07:10:08.373Z,3080
2018-09-17T07:11:18.186Z,2892
2018-09-17T07:12:28.006Z,2996
2018-09-17T07:13:37.827Z,2952
2018-09-17T07:14:47.984Z,2920
2018-09-17T07:15:58.064Z,2952
2018-09-17T07:17:08.036Z,2912
2018-09-17T07:18:18.266Z,2872
2018-09-17T07:19:28.347Z,2924
2018-09-17T07:20:38.161Z,3028
2018-09-17T07:21:48.251Z,3128
2018-09-17T07:22:58.335Z,3224
2018-09-17T07:24:08.419Z,3536
2018-09-17T07:25:18.721Z,3736
2018-09-17T07:26:28.587Z,3756
2018-09-17T07:27:38.669Z,3816
2018-09-17T07:28:48.748Z,3760
2018-09-17T07:29:58.816Z,3860
2018-09-17T07:31:08.908Z,3952
2018-09-17T07:32:18.966Z,3920
2018-09-17T07:33:29.026Z,3944
2018-09-17T07:34:39.107Z,3932
2018-09-17T07:35:49.222Z,3936
2018-09-17T07:36:59.311Z,3976
2018-09-17T07:38:09.401Z,4048
2018-09-17T07:39:19.517Z,4116
2018-09-17T07:40:29.609Z,4092
2018-09-17T07:41:39.420Z,4124
2018-09-17T07:42:49.572Z,4152
2018-09-17T07:43:59.786Z,4088
2018-09-17T07:45:09.907Z,4032
2018-09-17T07:46:19.989Z,4088
2018-09-17T07:47:30.066Z,4072
2018-09-17T07:48:40.161Z,4072
2018-09-17T07:49:49.863Z,4092
2018-09-17T07:50:59.405Z,3936
2018-09-17T07:52:09.495Z,3880
2018-09-17T07:53:19.870Z,3976
2018-09-17T07:54:29.696Z,4016
2018-09-17T07:55:39.770Z,3772
2018-09-17T07:56:49.588Z,3920
2018-09-17T07:57:59.686Z,3820
2018-09-17T07:59:11.087Z,3836
2018-09-17T08:00:21.171Z,3800
2018-09-17T08:01:31.368Z,3816
2018-09-17T08:02:41.449Z,3764
2018-09-17T08:03:51.532Z,3812
2018-09-17T08:05:01.343Z,3932
2018-09-17T08:06:11.164Z,4044
2018-09-17T08:07:21.473Z,4040
2018-09-17T08:08:31.067Z,4128
2018-09-17T08:09:40.882Z,4168
2018-09-17T08:10:50.969Z,4164
2018-09-17T08:12:01.078Z,4280
2018-09-17T08:13:11.231Z,4292
2018-09-17T08:14:21.300Z,4252
2018-09-17T08:15:31.114Z,4196
2018-09-17T08:16:41.194Z,4204
2018-09-17T08:17:50.746Z,4304
2018-09-17T08:19:00.886Z,4348
2018-09-17T08:20:10.722Z,4380
2018-09-17T08:21:20.534Z,4300
2018-09-17T08:22:30.622Z,4308
2018-09-17T08:23:40.499Z,4212
2018-09-17T08:24:50.641Z,4384
2018-09-17T08:26:01.570Z,4408
2018-09-17T08:27:11.678Z,4460
2018-09-17T08:28:21.258Z,4508
2018-09-17T08:29:31.588Z,4440
2018-09-17T08:30:41.516Z,4444
2018-09-17T08:31:51.341Z,4344
2018-09-17T08:33:01.415Z,4296
2018-09-17T08:34:11.513Z,4484
2018-09-17T08:35:21.059Z,4580
2018-09-17T08:36:30.970Z,4652
2018-09-17T08:37:40.789Z,4672
2018-09-17T08:38:50.346Z,4680
2018-09-17T08:40:00.143Z,4684
2018-09-17T08:41:09.694Z,4688
2018-09-17T08:42:19.246Z,4704
2018-09-17T08:43:29.336Z,4724
2018-09-17T08:44:39.150Z,4728
2018-09-17T08:45:49.400Z,4744
2018-09-17T08:46:59.525Z,4764
2018-09-17T08:48:09.376Z,4716
2018-09-17T08:49:19.442Z,4744
2018-09-17T08:50:29.238Z,4768
2018-09-17T08:51:39.327Z,4788
2018-09-17T08:52:49.074Z,4820
2018-09-17T08:53:59.246Z,4828
2018-09-17T08:55:09.122Z,4840
2018-09-17T08:56:18.941Z,4656
2018-09-17T08:57:28.997Z,4868
2018-09-17T08:58:38.904Z,4872
2018-09-17T08:59:49.010Z,4884
2018-09-17T09:00:59.148Z,4880
2018-09-17T09:02:09.229Z,4908
2018-09-17T09:03:19.040Z,4948
2018-09-17T09:04:28.868Z,4972
2018-09-17T09:05:39.110Z,4960
2018-09-17T09:06:49.206Z,4952
2018-09-17T09:07:59.023Z,4964
2018-09-17T09:09:10.557Z,4972
2018-09-17T09:10:20.633Z,4976
2018-09-17T09:11:30.719Z,4992
2018-09-17T09:12:40.630Z,5000
2018-09-17T09:13:50.679Z,5004
2018-09-17T09:15:00.547Z,5028
2018-09-17T09:16:10.632Z,5044
2018-09-17T09:17:20.467Z,5040
2018-09-17T09:18:30.628Z,5056
2018-09-17T09:19:41.118Z,5092
2018-09-17T09:20:51.441Z,5092
2018-09-17T09:22:01.245Z,5096
2018-09-17T09:23:11.349Z,5092
2018-09-17T09:24:21.421Z,5116
2018-09-17T09:25:31.514Z,5124
2018-09-17T09:26:41.606Z,5148
2018-09-17T09:27:51.438Z,5164
2018-09-17T09:29:03.045Z,5104
2018-09-17T09:30:13.120Z,5160
2018-09-17T09:31:23.202Z,5124
2018-09-17T09:32:33.330Z,5148
2018-09-17T09:33:43.649Z,5120
2018-09-17T09:34:53.483Z,5148
2018-09-17T09:36:03.827Z,5248
2018-09-17T09:37:13.898Z,5132
2018-09-17T09:38:24.059Z,5220
2018-09-17T09:39:33.880Z,5240
2018-09-17T09:40:44.012Z,5240
2018-09-17T09:41:54.096Z,5256
2018-09-17T09:43:04.208Z,5280
2018-09-17T09:44:14.013Z,5284
2018-09-17T09:45:24.080Z,5288
2018-09-17T09:46:34.155Z,5268
2018-09-17T09:47:44.259Z,5316
2018-09-17T09:48:53.878Z,5312
2018-09-17T09:50:04.030Z,5288
2018-09-17T09:51:13.858Z,5244
2018-09-17T09:52:23.948Z,5292
2018-09-17T09:53:33.778Z,5252
2018-09-17T09:54:43.608Z,5240
2018-09-17T09:55:53.430Z,5288
2018-09-17T09:57:03.486Z,5288
2018-09-17T09:58:13.580Z,5332
2018-09-17T09:59:23.666Z,5336
2018-09-17T10:00:33.763Z,5340
2018-09-17T10:01:43.923Z,5328
2018-09-17T10:02:54.009Z,5348
2018-09-17T10:04:04.090Z,5356
2018-09-17T10:05:14.051Z,5340
2018-09-17T10:06:24.132Z,5320
2018-09-17T10:07:34.202Z,5344
2018-09-17T10:08:44.278Z,5328
2018-09-17T10:09:54.361Z,5280
2018-09-17T10:11:04.440Z,5200
2018-09-17T10:12:14.272Z,5196
2018-09-17T10:13:24.358Z,5188
2018-09-17T10:14:34.457Z,5112
2018-09-17T10:15:44.552Z,5136
2018-09-17T10:16:54.656Z,5196
2018-09-17T10:18:04.838Z,5156
2018-09-17T10:19:15.050Z,5172
2018-09-17T10:20:25.190Z,5260
2018-09-17T10:21:35.006Z,5292
2018-09-17T10:22:45.151Z,5312
2018-09-17T10:23:54.955Z,5360
2018-09-17T10:25:05.626Z,5384
2018-09-17T10:26:15.712Z,5364
2018-09-17T10:27:25.903Z,5384
2018-09-17T10:28:35.478Z,5380
2018-09-17T10:29:45.597Z,5404
2018-09-17T10:30:55.463Z,5420
2018-09-17T10:32:05.575Z,5416
2018-09-17T10:33:15.400Z,5432
2018-09-17T10:34:25.526Z,5404
2018-09-17T10:35:35.627Z,5400
2018-09-17T10:36:45.427Z,5432
2018-09-17T10:37:55.494Z,5416
2018-09-17T10:39:05.578Z,5404
2018-09-17T10:40:16.202Z,5420
2018-09-17T10:41:26.307Z,5444
2018-09-17T10:42:36.390Z,5432
2018-09-17T10:43:46.194Z,5448
2018-09-17T10:44:55.500Z,5440
2018-09-17T10:46:05.582Z,5432
2018-09-17T10:47:15.443Z,5456
2018-09-17T10:48:25.579Z,5480
2018-09-17T10:49:35.409Z,5496
2018-09-17T10:50:45.311Z,5492
2018-09-17T10:51:55.548Z,5500
2018-09-17T10:53:05.630Z,5496
2018-09-17T10:54:15.717Z,5504
2018-09-17T10:55:25.667Z,5464
2018-09-17T10:56:35.479Z,5432
2018-09-17T10:57:45.357Z,5464
2018-09-17T10:58:55.458Z,5516
2018-09-17T11:00:05.286Z,5544
2018-09-17T11:01:15.380Z,5536
2018-09-17T11:02:25.468Z,5524
2018-09-17T11:03:35.651Z,5532
2018-09-17T11:04:45.736Z,5556
2018-09-17T11:05:55.818Z,5588
2018-09-17T11:07:05.917Z,5588
2018-09-17T11:08:16.134Z,5644
2018-09-17T11:09:26.350Z,5668
2018-09-17T11:10:36.175Z,5672
2018-09-17T11:11:46.280Z,5660
2018-09-17T11:12:56.390Z,5668
2018-09-17T11:14:06.485Z,5684
2018-09-17T11:15:16.101Z,5712
2018-09-17T11:16:25.927Z,5700
2018-09-17T11:17:36.453Z,5712
2018-09-17T11:18:46.354Z,5696
2018-09-17T11:19:56.488Z,5712
2018-09-17T11:21:06.621Z,5684
2018-09-17T11:22:16.447Z,5652
2018-09-17T11:23:26.614Z,5704
2018-09-17T11:24:36.986Z,5676
2018-09-17T11:25:47.058Z,5688
2018-09-17T11:26:57.223Z,5704
2018-09-17T11:28:07.367Z,5688
2018-09-17T11:29:17.484Z,5736
2018-09-17T11:30:27.310Z,5732
2018-09-17T11:31:37.698Z,5668
2018-09-17T11:32:47.781Z,5700
2018-09-17T11:33:57.607Z,5744
2018-09-17T11:35:08.847Z,5776
2018-09-17T11:36:18.763Z,5804
2018-09-17T11:37:28.682Z,5796
2018-09-17T11:38:38.777Z,5804
2018-09-17T11:39:48.613Z,5844
2018-09-17T11:40:58.692Z,5860
2018-09-17T11:42:08.527Z,5884
2018-09-17T11:43:18.642Z,5888
2018-09-17T11:44:28.865Z,5900
2018-09-17T11:45:38.962Z,5924
2018-09-17T11:46:49.203Z,5932
2018-09-17T11:47:59.015Z,5920
2018-09-17T11:49:10.599Z,5904
2018-09-17T11:50:20.200Z,5908
2018-09-17T11:51:30.024Z,5916
2018-09-17T11:52:40.097Z,5928
2018-09-17T11:53:49.741Z,5960
2018-09-17T11:54:59.906Z,5940
2018-09-17T11:56:10.080Z,5924
2018-09-17T11:57:19.909Z,5920
2018-09-17T11:58:29.994Z,5904
2018-09-17T11:59:40.107Z,5948
2018-09-17T12:00:50.226Z,5968
2018-09-17T12:02:01.611Z,5992
2018-09-17T12:03:11.723Z,6024
2018-09-17T12:04:21.846Z,6052
2018-09-17T12:05:31.964Z,6100
2018-09-17T12:06:42.064Z,6100
2018-09-17T12:07:52.267Z,6116
2018-09-17T12:09:02.374Z,6096
2018-09-17T12:10:12.215Z,6048
2018-09-17T12:11:22.374Z,6048
2018-09-17T12:12:32.581Z,6048
2018-09-17T12:13:42.189Z,6040
2018-09-17T12:14:52.266Z,6052
2018-09-17T12:16:02.347Z,6064
2018-09-17T12:17:12.446Z,6088
2018-09-17T12:18:22.581Z,6080
2018-09-17T12:19:32.726Z,6112
2018-09-17T12:20:42.574Z,6112
2018-09-17T12:21:52.665Z,6112
2018-09-17T12:23:03.698Z,6092
2018-09-17T12:24:13.893Z,6092
2018-09-17T12:25:23.973Z,5948
2018-09-17T12:26:34.056Z,5908
2018-09-17T12:27:44.149Z,5912
2018-09-17T12:28:54.248Z,5932
2018-09-17T12:30:04.343Z,5916
2018-09-17T12:31:15.514Z,5884
2018-09-17T12:32:25.099Z,5852
2018-09-17T12:33:35.569Z,5848
2018-09-17T12:34:45.783Z,5816
2018-09-17T12:35:55.619Z,5772
2018-09-17T12:37:06.147Z,5736
2018-09-17T12:38:16.031Z,5704
2018-09-17T12:39:26.101Z,5696
2018-09-17T12:40:36.196Z,5648
2018-09-17T12:41:46.289Z,5532
2018-09-17T12:42:56.386Z,5436
2018-09-17T12:44:06.480Z,5460
2018-09-17T12:45:16.693Z,5492
2018-09-17T12:46:26.800Z,5496
2018-09-17T12:47:36.887Z,5548
2018-09-17T12:48:46.969Z,5584
2018-09-17T12:49:57.049Z,5556
2018-09-17T12:51:06.947Z,5496
2018-09-17T12:52:16.770Z,5444
2018-09-17T12:53:27.112Z,5436
2018-09-17T12:54:37.243Z,5436
2018-09-17T12:55:47.113Z,5344
2018-09-17T12:56:57.210Z,5356
2018-09-17T12:58:07.350Z,5328
2018-09-17T12:59:17.468Z,5300
2018-09-17T13:00:27.535Z,5344
2018-09-17T13:01:37.191Z,5368
2018-09-17T13:02:47.305Z,5384
2018-09-17T13:03:57.397Z,5316
2018-09-17T13:05:07.305Z,5364
2018-09-17T13:06:17.402Z,5360
2018-09-17T13:07:27.490Z,5332
2018-09-17T13:08:37.598Z,5264
2018-09-17T13:09:47.666Z,5260
2018-09-17T13:10:57.788Z,5252
2018-09-17T13:12:08.451Z,5256
2018-09-17T13:13:18.312Z,5296
2018-09-17T13:14:28.384Z,5296
2018-09-17T13:15:38.004Z,5324
2018-09-17T13:16:47.818Z,5304
2018-09-17T13:17:57.648Z,5284
2018-09-17T13:19:07.871Z,5256
2018-09-17T13:20:17.681Z,5244
2018-09-17T13:21:27.762Z,5224
2018-09-17T13:22:37.874Z,5152
2018-09-17T13:23:47.980Z,5116
2018-09-17T13:24:58.416Z,5060
2018-09-17T13:26:09.841Z,5084
2018-09-17T13:27:19.921Z,5156
2018-09-17T13:28:30.037Z,5072
2018-09-17T13:29:39.907Z,5000
2018-09-17T13:30:50.032Z,4904
2018-09-17T13:32:01.399Z,4896
2018-09-17T13:33:11.782Z,4924
2018-09-17T13:34:21.643Z,4960
2018-09-17T13:35:31.800Z,4964
2018-09-17T13:36:41.913Z,4892
2018-09-17T13:37:51.710Z,4864
2018-09-17T13:39:02.200Z,4892
2018-09-17T13:40:11.776Z,4892
2018-09-17T13:41:21.860Z,4852
2018-09-17T13:42:31.999Z,4840
2018-09-17T13:43:42.031Z,4860
2018-09-17T13:44:52.216Z,4804
2018-09-17T13:46:02.117Z,4800
2018-09-17T13:47:12.235Z,4760
2018-09-17T13:48:22.106Z,4708
2018-09-17T13:49:32.301Z,4716
2018-09-17T13:50:42.475Z,4716
2018-09-17T13:51:52.589Z,4732
2018-09-17T13:53:02.611Z,4732
2018-09-17T13:54:12.498Z,4676
2018-09-17T13:55:22.627Z,4628
2018-09-17T13:56:32.449Z,4604
2018-09-17T13:57:42.306Z,4576
2018-09-17T13:58:52.548Z,4572
2018-09-17T14:00:02.840Z,4552
2018-09-17T14:01:12.982Z,4584
2018-09-17T14:02:23.233Z,4528
2018-09-17T14:03:33.432Z,4492
2018-09-17T14:04:43.661Z,4432
2018-09-17T14:05:53.772Z,4400
2018-09-17T14:07:03.924Z,4344
2018-09-17T14:08:14.056Z,4296
2018-09-17T14:09:24.205Z,4268
2018-09-17T14:10:34.395Z,4304
2018-09-17T14:11:44.579Z,4328
2018-09-17T14:12:54.699Z,4300
2018-09-17T14:14:04.265Z,4292
2018-09-17T14:15:14.400Z,4272
2018-09-17T14:16:24.548Z,4260
2018-09-17T14:17:34.667Z,4216
2018-09-17T14:18:44.531Z,4220
2018-09-17T14:19:54.631Z,4200
2018-09-17T14:21:04.463Z,4168
2018-09-17T14:22:14.100Z,4144
2018-09-17T14:23:24.294Z,4112
2018-09-17T14:24:34.420Z,4080
2018-09-17T14:25:44.277Z,4060
2018-09-17T14:26:54.156Z,4032
2018-09-17T14:28:04.395Z,4024
2018-09-17T14:29:14.272Z,3996
2018-09-17T14:30:24.399Z,4004
2018-09-17T14:31:34.233Z,3976
2018-09-17T14:32:44.580Z,3940
2018-09-17T14:33:54.557Z,3896
2018-09-17T14:35:04.381Z,3864
2018-09-17T14:36:14.512Z,3840
2018-09-17T14:37:24.375Z,3844
2018-09-17T14:38:34.507Z,3856
2018-09-17T14:39:44.787Z,3852
2018-09-17T14:40:55.129Z,3840
2018-09-17T14:42:05.049Z,3816
2018-09-17T14:43:14.566Z,3772
2018-09-17T14:44:24.410Z,3700
2018-09-17T14:45:34.336Z,3676
2018-09-17T14:46:44.218Z,3648
2018-09-17T14:47:54.357Z,3604
2018-09-17T14:49:05.817Z,3572
2018-09-17T14:50:15.951Z,3540
2018-09-17T14:51:26.367Z,3508
2018-09-17T14:52:36.727Z,3476
2018-09-17T14:53:46.546Z,3452
2018-09-17T14:54:56.455Z,3396
2018-09-17T14:56:06.568Z,3364
2018-09-17T14:57:16.728Z,3316
2018-09-17T14:58:27.342Z,3288
2018-09-17T14:59:36.797Z,3248
2018-09-17T15:00:46.990Z,3160
2018-09-17T15:01:57.147Z,3212
2018-09-17T15:03:07.286Z,3192
2018-09-17T15:04:17.658Z,3172
2018-09-17T15:05:28.304Z,3148
2018-09-17T15:06:38.534Z,3120
2018-09-17T15:07:49.002Z,3096
2018-09-17T15:08:59.503Z,3056
2018-09-17T15:10:10.739Z,3032
2018-09-17T15:11:20.996Z,3008
2018-09-17T15:12:31.246Z,2972
2018-09-17T15:13:41.139Z,2960
2018-09-17T15:14:51.548Z,2932
2018-09-17T15:16:01.340Z,2904
2018-09-17T15:17:11.665Z,2868
2018-09-17T15:18:21.840Z,2836
2018-09-17T15:19:32.004Z,2808
2018-09-17T15:20:42.168Z,2788
2018-09-17T15:21:52.264Z,2780
2018-09-17T15:23:01.865Z,2768
2018-09-17T15:24:12.468Z,2744
2018-09-17T15:25:22.376Z,2716
2018-09-17T15:26:32.847Z,2680
2018-09-17T15:27:43.018Z,2660
2018-09-17T15:28:53.149Z,2632
2018-09-17T15:30:03.035Z,2604
2018-09-17T15:31:13.682Z,2560
2018-09-17T15:32:24.792Z,2524
2018-09-17T15:33:34.965Z,2500
2018-09-17T15:34:44.797Z,2464
2018-09-17T15:35:54.902Z,2436
2018-09-17T15:37:05.163Z,2416
2018-09-17T15:38:15.478Z,2380
2018-09-17T15:39:26.138Z,2344
2018-09-17T15:40:36.950Z,2296
2018-09-17T15:41:47.594Z,2268
2018-09-17T15:42:57.483Z,2240
2018-09-17T15:44:07.911Z,2208
2018-09-17T15:45:18.194Z,2164
2018-09-17T15:46:28.343Z,2124
2018-09-17T15:47:38.454Z,2088
2018-09-17T15:48:48.553Z,2048
2018-09-17T15:49:58.881Z,2008
2018-09-17T15:51:09.097Z,1968
2018-09-17T15:52:19.562Z,1940
2018-09-17T15:53:29.882Z,1904
2018-09-17T15:54:40.020Z,1868
2018-09-17T15:55:50.132Z,1832
2018-09-17T15:57:00.306Z,1796
2018-09-17T15:58:10.728Z,1764
2018-09-17T15:59:21.036Z,1728
2018-09-17T16:00:31.185Z,1688
2018-09-17T16:01:41.289Z,1656
2018-09-17T16:02:51.452Z,1624
2018-09-17T16:04:01.727Z,1588
2018-09-17T16:05:12.094Z,1552
2018-09-17T16:06:21.929Z,1516
2018-09-17T16:07:32.021Z,1480
2018-09-17T16:08:42.850Z,1444
2018-09-17T16:09:53.191Z,1412
2018-09-17T16:11:03.039Z,1372
2018-09-17T16:12:13.126Z,1332
2018-09-17T16:13:23.220Z,1296
2018-09-17T16:14:33.043Z,1260
2018-09-17T16:15:43.197Z,1220
2018-09-17T16:16:53.293Z,1180
2018-09-17T16:18:03.377Z,1144
2018-09-17T16:19:13.201Z,1104
2018-09-17T16:20:23.317Z,1068
2018-09-17T16:21:33.150Z,1024
2018-09-17T16:22:43.239Z,976
2018-09-17T16:23:53.339Z,940
2018-09-17T16:25:03.481Z,900
2018-09-17T16:26:13.281Z,856
2018-09-17T16:27:23.430Z,796
2018-09-17T16:28:33.276Z,732
2018-09-17T16:29:43.090Z,708